Time;durP1;ratioP1;P1;durP2;ratioP2;P2;SDS_P1;SDS_P2;PMS_P1;PMS_P2;Temp;Humidity;BMP_temperature;BMP_pressure;BME280_temperature;BME280_humidity;BME280_pressure;Samples;Min_cycle;Max_cycle;Signal;HPM_P1;HPM_P2
2021/12/21 00:02:17;;;;;;;8.53;5.90;;;;;;;0.90;94.36;99354.50;31300138;28;20696;-74
2021/12/21 00:32:41;;;;;;;10.73;5.77;;;;;;;0.68;94.16;99366.91;31364821;28;20047;-75
2021/12/21 00:47:47;;;;;;;10.53;4.80;;;;;;;0.64;94.03;99371.47;31357701;28;20076;-75
2021/12/21 01:02:50;;;;;;;12.90;5.97;;;;;;;0.54;93.07;99372.13;31335334;28;20851;-75
2021/12/21 01:18:01;;;;;;;17.77;7.20;;;;;;;0.39;93.59;99367.81;31337913;28;20057;-74
2021/12/21 02:03:29;;;;;;;10.67;5.83;;;;;;;0.03;92.09;99380.78;31328343;28;20068;-74
2021/12/21 02:18:39;;;;;;;9.83;6.00;;;;;;;0.06;92.34;99382.72;31328493;28;20048;-74
2021/12/21 02:33:41;;;;;;;8.57;5.90;;;;;;;0.15;90.33;99396.56;31340922;28;20049;-75
2021/12/21 02:48:43;;;;;;;27.00;13.90;;;;;;;0.02;90.87;99405.16;31341428;28;20057;-74
2021/12/21 03:03:45;;;;;;;13.03;7.17;;;;;;;-0.06;92.22;99393.66;31313519;28;20059;-75
2021/12/21 03:18:48;;;;;;;15.47;8.23;;;;;;;-0.08;92.12;99406.59;31314104;28;20051;-74
2021/12/21 03:33:50;;;;;;;11.57;6.60;;;;;;;0.02;91.74;99416.59;31304672;28;20080;-75
2021/12/21 03:48:52;;;;;;;13.73;8.60;;;;;;;-0.06;92.69;99423.00;31307453;28;20053;-75
2021/12/21 04:03:54;;;;;;;15.77;7.57;;;;;;;0.03;92.48;99430.72;31322897;28;20049;-74
2021/12/21 04:18:58;;;;;;;7.53;4.97;;;;;;;-0.11;93.85;99439.31;31312895;28;20049;-75
2021/12/21 04:34:01;;;;;;;8.80;4.23;;;;;;;-0.14;95.68;99435.47;31314164;28;20465;-75
2021/12/21 04:49:03;;;;;;;9.17;4.73;;;;;;;-0.20;97.17;99452.16;31330633;28;20059;-76
2021/12/21 05:04:05;;;;;;;14.73;6.90;;;;;;;-0.06;97.88;99476.34;31348006;28;20056;-76
2021/12/21 05:19:07;;;;;;;8.63;4.87;;;;;;;-0.02;97.85;99487.84;31350903;28;20092;-74
2021/12/21 05:34:09;;;;;;;12.00;5.73;;;;;;;0.12;99.12;99512.03;31342804;28;20133;-75
2021/12/21 05:49:11;;;;;;;4.83;2.63;;;;;;;-0.93;94.09;99587.38;31355507;28;20083;-76
2021/12/21 06:04:14;;;;;;;3.10;2.47;;;;;;;-1.70;96.03;99613.25;31305854;28;20140;-75
2021/12/21 06:34:38;;;;;;;2.03;1.77;;;;;;;-1.86;93.48;99642.53;31345659;28;20406;-76
2021/12/21 07:05:01;;;;;;;5.27;2.27;;;;;;;-1.38;93.94;99681.22;31312926;28;20056;-75
2021/12/21 07:20:03;;;;;;;3.13;2.00;;;;;;;-1.11;93.11;99693.59;31314064;28;20539;-75
2021/12/21 07:35:06;;;;;;;5.17;3.33;;;;;;;-1.26;93.09;99715.75;31304783;28;20127;-75
2021/12/21 07:50:08;;;;;;;4.90;2.37;;;;;;;-1.11;91.74;99736.22;31309358;28;20132;-76
2021/12/21 08:05:11;;;;;;;6.37;3.07;;;;;;;-0.99;89.88;99764.66;31295107;28;20103;-76
2021/12/21 08:20:13;;;;;;;7.50;3.57;;;;;;;-0.62;88.22;99754.34;31325531;28;20063;-76
2021/12/21 08:35:15;;;;;;;10.23;4.17;;;;;;;0.03;81.39;99767.72;31305594;28;20063;-74
2021/12/21 08:50:17;;;;;;;6.20;3.77;;;;;;;3.03;69.06;99760.81;31360735;28;20520;-74
2021/12/21 09:05:24;;;;;;;9.53;3.87;;;;;;;0.88;77.11;99779.75;31301093;28;20048;-74
2021/12/21 09:20:29;;;;;;;18.77;7.77;;;;;;;0.10;82.79;99797.22;31311141;28;20053;-75
2021/12/21 09:35:30;;;;;;;21.90;10.47;;;;;;;0.08;83.17;99802.13;31342172;28;20359;-74
2021/12/21 09:50:36;;;;;;;14.23;6.07;;;;;;;-0.39;85.54;99792.50;31329590;28;20053;-76
2021/12/21 10:05:42;;;;;;;9.50;4.57;;;;;;;-0.64;86.42;99801.16;31345510;28;20103;-75
2021/12/21 10:20:46;;;;;;;9.77;4.07;;;;;;;-0.61;84.91;99806.56;31311832;28;20480;-74
2021/12/21 10:35:49;;;;;;;6.33;3.63;;;;;;;-0.63;81.03;99805.34;31327999;28;20053;-75
2021/12/21 10:50:51;;;;;;;6.63;3.37;;;;;;;-0.70;78.68;99813.97;31322194;28;20723;-75
2021/12/21 11:05:53;;;;;;;7.00;3.47;;;;;;;-0.68;78.10;99817.06;31318183;28;20149;-75
2021/12/21 11:20:56;;;;;;;4.63;3.67;;;;;;;-0.90;78.62;99828.38;31341959;28;20452;-75
2021/12/21 11:51:30;;;;;;;3.73;2.30;;;;;;;-1.46;73.60;99852.59;31306685;28;20060;-76
2021/12/21 12:06:53;;;;;;;4.13;2.47;;;;;;;-1.69;66.17;99883.59;31294827;28;20060;-75
2021/12/21 12:22:04;;;;;;;3.40;2.23;;;;;;;-2.07;68.83;99908.78;31340657;28;20115;-75
2021/12/21 12:37:21;;;;;;;3.40;2.73;;;;;;;-2.24;73.32;99911.72;31332059;28;20087;-77
2021/12/21 12:52:28;;;;;;;6.33;3.37;;;;;;;-2.49;75.51;99941.03;31352329;28;20053;-78
2021/12/21 13:07:34;;;;;;;6.37;3.13;;;;;;;-2.93;75.81;99973.81;31320274;28;20049;-78
2021/12/21 13:22:36;;;;;;;4.33;2.83;;;;;;;-3.17;74.41;99991.25;31327285;28;20059;-78
2021/12/21 13:37:38;;;;;;;3.57;2.73;;;;;;;-3.53;74.74;100007.84;31351306;28;20045;-77
2021/12/21 13:52:53;;;;;;;5.67;2.50;;;;;;;-3.58;73.70;100033.81;31331884;28;20061;-77
2021/12/21 14:07:54;;;;;;;6.27;3.20;;;;;;;-3.44;72.53;100039.63;31288207;28;20695;-77
2021/12/21 14:22:56;;;;;;;4.20;2.70;;;;;;;-3.59;72.48;100058.78;31308031;28;20063;-77
2021/12/21 14:38:16;;;;;;;5.43;2.43;;;;;;;-3.77;70.26;100082.78;31319635;28;20495;-77
2021/12/21 14:53:22;;;;;;;2.83;2.63;;;;;;;-3.84;71.01;100101.09;31328493;28;20612;-76
2021/12/21 15:08:24;;;;;;;4.40;3.00;;;;;;;-4.10;72.12;100113.72;31341095;28;20152;-76
2021/12/21 15:23:26;;;;;;;6.50;3.20;;;;;;;-4.08;69.22;100110.75;31293845;28;20478;-76
2021/12/21 15:38:32;;;;;;;3.83;2.63;;;;;;;-4.12;65.30;100126.53;31270280;28;20445;-78
2021/12/21 15:53:34;;;;;;;4.50;3.60;;;;;;;-4.28;65.31;100136.09;31357143;28;20147;-76
2021/12/21 16:08:37;;;;;;;6.30;3.23;;;;;;;-4.41;63.33;100134.44;31332734;28;20059;-77
2021/12/21 16:23:39;;;;;;;4.50;2.30;;;;;;;-4.41;64.67;100160.94;31336541;28;20067;-78
2021/12/21 16:38:42;;;;;;;6.77;3.50;;;;;;;-4.66;66.50;100178.44;31343436;28;20050;-77
2021/12/21 16:53:44;;;;;;;10.67;4.63;;;;;;;-4.71;64.40;100189.97;31319222;28;20057;-76
2021/12/21 17:08:55;;;;;;;3.73;3.00;;;;;;;-5.04;66.20;100212.75;31346799;28;20466;-78
2021/12/21 17:23:57;;;;;;;3.63;3.00;;;;;;;-5.43;64.98;100232.91;31334984;28;20414;-77
2021/12/21 17:39:03;;;;;;;3.90;2.73;;;;;;;-5.71;61.56;100255.41;31366040;28;20041;-76
2021/12/21 17:54:06;;;;;;;4.77;3.00;;;;;;;-5.95;62.44;100253.16;31322242;28;20060;-76
2021/12/21 18:09:08;;;;;;;6.60;3.50;;;;;;;-6.24;61.78;100261.56;31328936;28;20080;-76
2021/12/21 18:24:10;;;;;;;5.77;3.70;;;;;;;-6.44;62.16;100275.25;31297086;28;20088;-77
2021/12/21 18:39:15;;;;;;;3.40;3.10;;;;;;;-6.75;63.04;100283.88;31330526;28;20047;-76
2021/12/21 18:54:17;;;;;;;2.60;2.40;;;;;;;-6.93;63.32;100303.28;31306271;28;20095;-78
2021/12/21 19:09:19;;;;;;;2.63;2.40;;;;;;;-7.19;64.04;100320.72;31306235;28;21593;-77
2021/12/21 19:24:21;;;;;;;3.27;2.87;;;;;;;-7.59;66.06;100344.16;31298823;28;20316;-78
2021/12/21 19:39:23;;;;;;;4.97;3.60;;;;;;;-8.08;67.71;100358.69;31327469;28;20044;-78
2021/12/21 19:54:25;;;;;;;5.57;3.03;;;;;;;-8.46;67.26;100362.44;31304644;28;20479;-74
2021/12/21 20:09:27;;;;;;;4.37;3.43;;;;;;;-8.76;67.93;100385.50;31303568;28;20147;-75
2021/12/21 20:24:31;;;;;;;3.50;3.20;;;;;;;-9.03;68.05;100398.47;31047938;28;20061;-79
2021/12/21 20:39:34;;;;;;;2.90;2.70;;;;;;;-9.04;72.76;100441.63;30998331;28;20467;-79
2021/12/21 20:54:36;;;;;;;5.73;3.77;;;;;;;-9.11;74.76;100443.78;31006802;28;20646;-76
2021/12/21 21:09:38;;;;;;;3.23;3.03;;;;;;;-8.78;72.72;100466.59;31008007;28;20145;-76
2021/12/21 21:24:43;;;;;;;4.43;3.57;;;;;;;-8.79;72.45;100462.38;31002269;28;20050;-77
2021/12/21 21:39:45;;;;;;;;;;;;;;;-8.66;76.73;100474.84;31026213;28;20057;-76
2021/12/21 21:54:47;;;;;;;3.17;2.97;;;;;;;-9.00;76.13;100484.72;30984870;28;19928;-77
2021/12/21 22:09:51;;;;;;;3.73;3.43;;;;;;;-9.53;69.25;100484.66;30989662;28;20137;-75
2021/12/21 22:24:52;;;;;;;2.80;2.60;;;;;;;-9.71;67.93;100496.63;31004247;28;20137;-77
2021/12/21 22:39:55;;;;;;;3.73;3.43;;;;;;;-9.80;71.55;100518.50;31013006;28;20085;-78
2021/12/21 22:54:56;;;;;;;2.83;2.63;;;;;;;-9.78;70.27;100529.53;30995674;28;20047;-76
2021/12/21 23:09:58;;;;;;;3.10;2.97;;;;;;;-9.37;70.99;100537.91;30995340;28;20408;-76
2021/12/21 23:25:00;;;;;;;3.17;2.97;;;;;;;-9.31;71.79;100539.44;30996274;28;20150;-75
2021/12/21 23:40:09;;;;;;;4.47;3.60;;;;;;;-9.39;71.18;100559.19;30981714;28;20069;-76
2021/12/21 23:55:11;;;;;;;3.27;3.07;;;;;;;-9.70;71.52;100582.28;31008183;28;20086;-77
